Time;durP1;ratioP1;P1;durP2;ratioP2;P2;SDS_P1;SDS_P2;PMS_P1;PMS_P2;Temp;Humidity;BMP_temperature;BMP_pressure;BME280_temperature;BME280_humidity;BME280_pressure;Samples;Min_cycle;Max_cycle;Signal;HPM_P1;HPM_P2
2023/01/04 00:00:34;;;;;;;154.25;55.17;;;;;;;;;;6245875;28;20045;-63
2023/01/04 00:03:55;;;;;;;139.85;51.92;;;;;;;;;;6243519;28;20104;-63
2023/01/04 00:06:56;;;;;;;103.25;38.95;;;;;;;;;;6244800;28;20045;-63
2023/01/04 00:09:57;;;;;;;88.78;37.08;;;;;;;;;;6246985;28;20041;-63
2023/01/04 00:12:59;;;;;;;114.85;45.35;;;;;;;;;;6240122;28;20056;-63
2023/01/04 00:16:06;;;;;;;122.50;46.42;;;;;;;;;;6241162;28;20120;-63
2023/01/04 00:19:06;;;;;;;128.10;49.42;;;;;;;;;;6234435;28;20038;-63
2023/01/04 00:22:07;;;;;;;133.20;50.42;;;;;;;;;;6245138;28;20435;-63
2023/01/04 00:25:13;;;;;;;152.05;55.40;;;;;;;;;;6243884;28;20537;-62
2023/01/04 00:28:14;;;;;;;154.57;57.65;;;;;;;;;;6242478;28;20063;-62
2023/01/04 00:31:15;;;;;;;124.57;49.80;;;;;;;;;;6244958;28;20095;-62
2023/01/04 00:34:16;;;;;;;139.90;54.10;;;;;;;;;;6243070;28;20049;-63
2023/01/04 00:37:17;;;;;;;140.87;55.03;;;;;;;;;;6241711;28;20091;-62
2023/01/04 00:40:18;;;;;;;143.13;56.35;;;;;;;;;;6244126;28;20041;-63
2023/01/04 00:43:19;;;;;;;140.15;55.50;;;;;;;;;;6242611;28;20037;-63
2023/01/04 00:46:20;;;;;;;148.07;56.75;;;;;;;;;;6249857;28;20606;-63
2023/01/04 00:49:20;;;;;;;142.68;53.15;;;;;;;;;;6263277;28;20046;-63
2023/01/04 00:52:21;;;;;;;165.38;61.38;;;;;;;;;;6243600;28;20049;-63
2023/01/04 00:55:21;;;;;;;156.75;60.30;;;;;;;;;;6260806;28;20054;-63
2023/01/04 00:58:22;;;;;;;157.93;54.80;;;;;;;;;;6241207;28;20045;-63
2023/01/04 01:01:24;;;;;;;137.63;52.95;;;;;;;;;;6240866;28;20045;-62
2023/01/04 01:04:25;;;;;;;150.57;57.25;;;;;;;;;;6240137;28;20103;-63
2023/01/04 01:07:25;;;;;;;144.00;55.85;;;;;;;;;;6243776;28;20428;-63
2023/01/04 01:10:26;;;;;;;154.80;57.25;;;;;;;;;;6242020;28;20400;-63
2023/01/04 01:13:26;;;;;;;139.98;53.08;;;;;;;;;;6243734;28;20115;-63
2023/01/04 01:16:27;;;;;;;103.82;40.33;;;;;;;;;;6247187;28;20041;-62
2023/01/04 01:19:28;;;;;;;122.78;48.83;;;;;;;;;;6239840;28;20066;-63
2023/01/04 01:22:30;;;;;;;139.75;51.60;;;;;;;;;;6242262;28;20136;-62
2023/01/04 01:25:32;;;;;;;148.88;52.05;;;;;;;;;;6244574;28;20389;-63
2023/01/04 01:28:34;;;;;;;141.95;55.10;;;;;;;;;;6243177;28;20064;-62
2023/01/04 01:31:35;;;;;;;143.30;56.72;;;;;;;;;;6244066;28;20537;-62
2023/01/04 01:34:36;;;;;;;151.45;60.17;;;;;;;;;;6237818;28;20057;-62
2023/01/04 01:37:36;;;;;;;148.20;57.22;;;;;;;;;;6242175;28;20041;-63
2023/01/04 01:40:41;;;;;;;147.15;55.35;;;;;;;;;;6244382;28;20072;-62
2023/01/04 01:43:55;;;;;;;127.63;49.42;;;;;;;;;;6240691;28;20388;-62
2023/01/04 01:46:56;;;;;;;120.20;45.17;;;;;;;;;;6240823;28;20055;-62
2023/01/04 01:49:56;;;;;;;138.38;50.08;;;;;;;;;;6240877;28;20045;-62
2023/01/04 01:52:59;;;;;;;132.65;53.35;;;;;;;;;;6258614;28;20507;-63
2023/01/04 01:56:01;;;;;;;140.82;55.65;;;;;;;;;;6241214;28;20076;-62
2023/01/04 01:59:02;;;;;;;146.88;57.63;;;;;;;;;;6247177;28;20060;-62
2023/01/04 02:02:03;;;;;;;149.90;54.80;;;;;;;;;;6250688;28;20629;-62
2023/01/04 02:05:04;;;;;;;143.68;54.25;;;;;;;;;;6252777;28;20128;-62
2023/01/04 02:08:05;;;;;;;150.35;55.17;;;;;;;;;;6241194;28;20092;-62
2023/01/04 02:11:07;;;;;;;156.18;59.83;;;;;;;;;;6242083;28;20521;-64
2023/01/04 02:14:26;;;;;;;143.23;53.50;;;;;;;;;;6237923;28;20046;-63
2023/01/04 02:18:15;;;;;;;126.55;53.03;;;;;;;;;;6243985;28;20045;-63
2023/01/04 02:21:24;;;;;;;134.68;52.17;;;;;;;;;;6234239;28;21205;-62
2023/01/04 02:24:42;;;;;;;130.52;52.08;;;;;;;;;;6242942;28;20046;-62
2023/01/04 02:27:50;;;;;;;130.40;51.60;;;;;;;;;;6244010;28;20049;-63
2023/01/04 02:31:12;;;;;;;125.40;48.72;;;;;;;;;;6234832;28;20057;-64
2023/01/04 02:34:32;;;;;;;128.80;51.15;;;;;;;;;;6249408;28;20041;-64
2023/01/04 02:37:40;;;;;;;126.18;50.58;;;;;;;;;;6264516;28;20124;-62
2023/01/04 02:40:52;;;;;;;128.43;50.13;;;;;;;;;;6241688;28;21094;-62
2023/01/04 02:50:58;;;;;;;;;;;;;;;;;;6263615;28;20139;-64
2023/01/04 02:54:08;;;;;;;118.53;45.90;;;;;;;;;;6241245;28;20360;-62
2023/01/04 02:57:25;;;;;;;122.25;47.30;;;;;;;;;;6239423;28;20045;-63
2023/01/04 03:06:14;;;;;;;119.88;48.20;;;;;;;;;;6241123;28;20049;-63
2023/01/04 03:08:07;;;;;;;116.10;44.40;;;;;;;;;;6257114;28;20140;-62
2023/01/04 03:14:53;;;;;;;119.78;46.30;;;;;;;;;;6244638;28;20050;-62
2023/01/04 03:18:04;;;;;;;118.30;45.95;;;;;;;;;;6255996;28;20049;-63
2023/01/04 03:21:08;;;;;;;113.07;44.33;;;;;;;;;;6245429;28;20075;-63
2023/01/04 03:37:48;;;;;;;127.40;47.35;;;;;;;;;;6258732;28;21706;-62
2023/01/04 03:48:33;;;;;;;115.80;45.72;;;;;;;;;;6243470;28;20410;-62
2023/01/04 03:51:36;;;;;;;123.07;47.00;;;;;;;;;;6242530;28;20041;-62
2023/01/04 03:54:40;;;;;;;120.60;49.92;;;;;;;;;;6243729;28;20123;-62
2023/01/04 03:57:41;;;;;;;122.40;49.65;;;;;;;;;;6253486;28;20448;-61
2023/01/04 04:00:42;;;;;;;114.03;46.40;;;;;;;;;;6245397;28;20041;-62
2023/01/04 04:10:21;;;;;;;120.40;44.55;;;;;;;;;;6248530;28;20533;-62
2023/01/04 04:13:22;;;;;;;111.05;45.75;;;;;;;;;;6245459;28;20057;-62
2023/01/04 04:16:23;;;;;;;109.68;43.92;;;;;;;;;;6244112;28;20482;-63
2023/01/04 04:19:23;;;;;;;105.97;43.38;;;;;;;;;;6243335;28;20057;-62
2023/01/04 04:22:24;;;;;;;122.00;47.65;;;;;;;;;;6265590;28;20422;-62
2023/01/04 04:25:24;;;;;;;119.95;51.38;;;;;;;;;;6252609;28;20056;-63
2023/01/04 04:28:25;;;;;;;140.32;60.15;;;;;;;;;;6244227;28;20095;-62
2023/01/04 04:31:26;;;;;;;128.45;48.95;;;;;;;;;;6244717;28;20663;-62
2023/01/04 04:34:26;;;;;;;139.02;55.95;;;;;;;;;;6246470;28;20552;-62
2023/01/04 04:37:30;;;;;;;115.25;42.72;;;;;;;;;;6242476;28;20735;-62
2023/01/04 04:43:51;;;;;;;97.95;36.38;;;;;;;;;;6244393;28;20052;-62
2023/01/04 04:46:52;;;;;;;97.82;40.75;;;;;;;;;;6245081;28;20053;-62
2023/01/04 04:49:52;;;;;;;110.38;46.97;;;;;;;;;;6243360;28;20801;-62
2023/01/04 04:52:53;;;;;;;92.22;42.22;;;;;;;;;;6243735;28;20076;-62
2023/01/04 04:55:53;;;;;;;90.20;35.25;;;;;;;;;;6258912;28;20156;-62
2023/01/04 04:58:54;;;;;;;86.43;32.88;;;;;;;;;;6244635;28;20553;-62
2023/01/04 05:01:54;;;;;;;79.63;33.08;;;;;;;;;;6243778;28;20048;-62
2023/01/04 05:04:55;;;;;;;86.57;35.47;;;;;;;;;;6240938;28;20049;-62
2023/01/04 05:07:56;;;;;;;93.15;37.25;;;;;;;;;;6242894;28;20053;-63
2023/01/04 05:10:56;;;;;;;106.60;44.40;;;;;;;;;;6242173;28;20483;-63
2023/01/04 05:13:57;;;;;;;88.55;35.08;;;;;;;;;;6246371;28;20115;-63
2023/01/04 05:16:57;;;;;;;97.97;39.95;;;;;;;;;;6240268;28;20512;-63
2023/01/04 05:19:58;;;;;;;105.10;43.22;;;;;;;;;;6243457;28;20065;-62
2023/01/04 05:22:59;;;;;;;97.43;37.72;;;;;;;;;;6243083;28;20906;-63
2023/01/04 05:26:00;;;;;;;85.53;34.67;;;;;;;;;;6252137;28;20041;-64
2023/01/04 05:29:01;;;;;;;90.28;37.65;;;;;;;;;;6243875;28;20053;-62
2023/01/04 05:32:02;;;;;;;86.50;33.90;;;;;;;;;;6254924;28;20059;-63
2023/01/04 05:35:03;;;;;;;98.55;36.13;;;;;;;;;;6258984;28;20041;-63
2023/01/04 05:38:03;;;;;;;89.03;39.42;;;;;;;;;;6241419;28;20059;-62
2023/01/04 05:42:23;;;;;;;93.32;39.03;;;;;;;;;;6246314;28;20882;-63
2023/01/04 05:44:25;;;;;;;85.13;33.28;;;;;;;;;;6250329;28;20442;-63
2023/01/04 05:47:27;;;;;;;89.75;38.03;;;;;;;;;;6241268;28;20069;-62
2023/01/04 05:50:27;;;;;;;94.90;38.55;;;;;;;;;;6255565;28;20041;-63
2023/01/04 05:53:28;;;;;;;94.30;38.13;;;;;;;;;;6256030;28;20053;-63
2023/01/04 05:56:28;;;;;;;96.00;40.22;;;;;;;;;;6247849;28;20041;-62
2023/01/04 05:59:29;;;;;;;103.03;38.28;;;;;;;;;;6265105;28;20492;-62
2023/01/04 06:02:30;;;;;;;105.05;40.65;;;;;;;;;;6247117;28;20047;-62
2023/01/04 06:05:31;;;;;;;102.90;38.08;;;;;;;;;;6241810;28;20538;-62
2023/01/04 06:08:31;;;;;;;91.20;36.42;;;;;;;;;;6239184;28;20077;-62
2023/01/04 06:11:32;;;;;;;96.53;37.70;;;;;;;;;;6236133;28;20055;-62
2023/01/04 06:14:32;;;;;;;100.82;37.97;;;;;;;;;;6238042;28;20047;-62
2023/01/04 06:17:33;;;;;;;100.00;39.10;;;;;;;;;;6238787;28;20733;-63
2023/01/04 06:20:34;;;;;;;101.63;38.92;;;;;;;;;;6241770;28;20050;-62
2023/01/04 06:23:35;;;;;;;95.40;37.00;;;;;;;;;;6242027;28;20053;-62
2023/01/04 06:26:35;;;;;;;84.53;34.85;;;;;;;;;;6239285;28;20058;-63
2023/01/04 06:29:36;;;;;;;97.72;36.30;;;;;;;;;;6237367;28;20053;-63
2023/01/04 06:32:36;;;;;;;97.65;36.47;;;;;;;;;;6238193;28;20484;-64
2023/01/04 06:35:37;;;;;;;89.78;35.67;;;;;;;;;;6236902;28;20064;-64
2023/01/04 06:38:38;;;;;;;91.35;35.25;;;;;;;;;;6235447;28;20772;-67
2023/01/04 06:41:39;;;;;;;84.28;33.20;;;;;;;;;;6243864;28;20581;-62
2023/01/04 06:44:39;;;;;;;82.07;33.15;;;;;;;;;;6243840;28;20050;-63
2023/01/04 06:47:40;;;;;;;88.15;35.38;;;;;;;;;;6258495;28;20139;-65
2023/01/04 06:50:41;;;;;;;81.82;32.92;;;;;;;;;;6243602;28;20603;-62
2023/01/04 06:53:42;;;;;;;89.38;33.83;;;;;;;;;;6243210;28;20503;-62
2023/01/04 06:56:43;;;;;;;105.05;42.05;;;;;;;;;;6247662;28;20069;-63
2023/01/04 06:59:43;;;;;;;106.55;41.30;;;;;;;;;;6245148;28;20056;-61
2023/01/04 07:02:44;;;;;;;109.97;44.90;;;;;;;;;;6248952;28;20045;-63
2023/01/04 07:05:45;;;;;;;123.57;48.85;;;;;;;;;;6261557;28;20056;-62
2023/01/04 07:08:45;;;;;;;128.70;52.42;;;;;;;;;;6258244;28;20140;-63
2023/01/04 07:11:46;;;;;;;133.38;51.92;;;;;;;;;;6251505;28;20718;-62
2023/01/04 07:14:46;;;;;;;149.88;59.85;;;;;;;;;;6250133;28;20095;-63
2023/01/04 07:17:48;;;;;;;125.55;53.05;;;;;;;;;;6264250;28;20045;-64
2023/01/04 07:20:48;;;;;;;128.40;51.72;;;;;;;;;;6261786;28;20049;-63
2023/01/04 07:23:49;;;;;;;125.40;50.80;;;;;;;;;;6244406;28;20056;-62
2023/01/04 07:26:50;;;;;;;131.93;51.97;;;;;;;;;;6245574;28;20053;-63
2023/01/04 07:29:50;;;;;;;118.05;50.33;;;;;;;;;;6244748;28;20067;-64
2023/01/04 07:32:52;;;;;;;130.82;51.85;;;;;;;;;;6245739;28;20053;-62
2023/01/04 07:35:53;;;;;;;131.90;53.65;;;;;;;;;;6244348;28;20098;-62
2023/01/04 07:38:53;;;;;;;139.90;57.53;;;;;;;;;;6241385;28;20048;-63
2023/01/04 07:41:54;;;;;;;130.55;51.13;;;;;;;;;;6245083;28;20101;-62
2023/01/04 07:44:55;;;;;;;140.43;57.88;;;;;;;;;;6244196;28;20779;-62
2023/01/04 07:47:56;;;;;;;137.23;57.03;;;;;;;;;;6241547;28;20077;-62
2023/01/04 07:50:57;;;;;;;131.13;52.60;;;;;;;;;;6242983;28;20045;-62
2023/01/04 07:53:58;;;;;;;123.07;49.70;;;;;;;;;;6241607;28;20068;-62
2023/01/04 07:56:59;;;;;;;130.38;51.50;;;;;;;;;;6243732;28;20052;-64
2023/01/04 07:59:59;;;;;;;134.07;55.30;;;;;;;;;;6242095;28;20133;-63
2023/01/04 08:03:00;;;;;;;125.68;52.63;;;;;;;;;;6242700;28;20049;-62
2023/01/04 08:06:03;;;;;;;133.88;55.03;;;;;;;;;;6244186;28;20053;-63
2023/01/04 08:09:05;;;;;;;132.82;53.45;;;;;;;;;;6245493;28;20065;-63
2023/01/04 08:12:06;;;;;;;126.07;51.10;;;;;;;;;;6243120;28;20041;-63
2023/01/04 08:15:07;;;;;;;130.40;51.60;;;;;;;;;;6229992;28;20108;-62
2023/01/04 08:18:08;;;;;;;128.32;54.75;;;;;;;;;;6243484;28;20041;-63
2023/01/04 08:21:08;;;;;;;132.13;52.35;;;;;;;;;;6244910;28;20510;-63
2023/01/04 08:24:17;;;;;;;147.00;59.45;;;;;;;;;;6244167;28;20046;-62
2023/01/04 08:27:18;;;;;;;132.30;56.92;;;;;;;;;;6243371;28;20087;-63
2023/01/04 08:30:19;;;;;;;141.00;59.10;;;;;;;;;;6253619;28;20037;-63
2023/01/04 08:33:20;;;;;;;109.65;43.70;;;;;;;;;;6264374;28;20063;-62
2023/01/04 08:36:26;;;;;;;89.35;37.63;;;;;;;;;;6267791;28;20048;-62
2023/01/04 08:39:28;;;;;;;96.28;39.75;;;;;;;;;;6266612;28;20498;-62
2023/01/04 08:42:29;;;;;;;;;;;;;;;;;;6268187;28;20045;-63
2023/01/04 08:45:29;;;;;;;86.63;36.47;;;;;;;;;;6266651;28;19921;-62
2023/01/04 08:48:31;;;;;;;95.25;41.83;;;;;;;;;;6258795;28;20106;-63
2023/01/04 08:51:33;;;;;;;83.43;35.60;;;;;;;;;;6263775;28;20461;-62
2023/01/04 08:54:34;;;;;;;69.22;28.02;;;;;;;;;;6256243;28;20045;-62
2023/01/04 08:57:34;;;;;;;67.00;28.92;;;;;;;;;;6254838;28;20049;-62
2023/01/04 09:00:35;;;;;;;62.08;27.48;;;;;;;;;;6258102;28;20064;-63
2023/01/04 09:03:37;;;;;;;59.75;27.45;;;;;;;;;;6244400;28;20058;-62
2023/01/04 09:06:38;;;;;;;61.22;26.30;;;;;;;;;;6243936;28;20099;-63
2023/01/04 09:09:38;;;;;;;65.85;28.90;;;;;;;;;;6240521;28;20045;-63
2023/01/04 09:12:39;;;;;;;61.20;26.70;;;;;;;;;;6239778;28;20050;-63
2023/01/04 09:15:40;;;;;;;68.73;33.77;;;;;;;;;;6238334;28;20045;-63
2023/01/04 09:18:42;;;;;;;67.45;30.02;;;;;;;;;;6250391;28;20594;-62
2023/01/04 09:21:42;;;;;;;60.85;25.42;;;;;;;;;;6264081;28;20155;-62
2023/01/04 09:24:43;;;;;;;61.00;25.17;;;;;;;;;;6264787;28;20136;-62
2023/01/04 09:27:43;;;;;;;55.80;23.48;;;;;;;;;;6265277;28;20062;-62
2023/01/04 09:30:44;;;;;;;61.08;25.85;;;;;;;;;;6266185;28;20049;-63
2023/01/04 09:33:45;;;;;;;63.13;25.38;;;;;;;;;;6264701;28;20042;-62
2023/01/04 09:36:47;;;;;;;69.47;31.88;;;;;;;;;;6263713;28;20047;-62
2023/01/04 09:39:47;;;;;;;75.43;33.90;;;;;;;;;;6243073;28;20408;-63
2023/01/04 09:42:49;;;;;;;74.03;31.77;;;;;;;;;;6242884;28;20149;-62
2023/01/04 09:45:53;;;;;;;75.00;33.35;;;;;;;;;;6242635;28;20118;-63
2023/01/04 09:49:08;;;;;;;53.20;24.38;;;;;;;;;;6240544;28;20045;-62
2023/01/04 09:52:08;;;;;;;57.50;23.98;;;;;;;;;;6237769;28;20492;-62
2023/01/04 09:55:41;;;;;;;58.40;29.65;;;;;;;;;;6244967;28;20044;-62
2023/01/04 09:58:42;;;;;;;;;;;;;;;;;;6245030;28;20060;-63
2023/01/04 10:01:58;;;;;;;50.72;22.75;;;;;;;;;;6241349;28;19921;-63
2023/01/04 10:05:01;;;;;;;56.15;21.05;;;;;;;;;;6241938;28;20411;-62
2023/01/04 10:08:02;;;;;;;49.65;20.75;;;;;;;;;;6242321;28;20496;-62
2023/01/04 10:11:24;;;;;;;44.10;19.70;;;;;;;;;;6242293;28;20136;-62
2023/01/04 10:14:55;;;;;;;34.50;15.15;;;;;;;;;;6241237;28;20041;-62
2023/01/04 10:18:15;;;;;;;33.97;13.63;;;;;;;;;;6240964;28;20506;-62
2023/01/04 10:21:41;;;;;;;28.77;11.43;;;;;;;;;;6264392;28;20404;-62
2023/01/04 10:25:10;;;;;;;35.00;13.57;;;;;;;;;;6244929;28;20061;-62
2023/01/04 10:28:31;;;;;;;26.27;11.68;;;;;;;;;;6244665;28;20049;-62
2023/01/04 10:31:56;;;;;;;27.52;11.93;;;;;;;;;;6248974;28;20047;-62
2023/01/04 10:34:57;;;;;;;25.30;9.98;;;;;;;;;;6252039;28;20053;-62
2023/01/04 10:38:00;;;;;;;24.70;9.50;;;;;;;;;;6249266;28;20053;-62
2023/01/04 10:41:09;;;;;;;21.13;8.35;;;;;;;;;;6246742;28;20095;-62
2023/01/04 10:44:19;;;;;;;17.67;7.72;;;;;;;;;;6249522;28;20049;-62
2023/01/04 10:47:43;;;;;;;19.00;7.57;;;;;;;;;;6261660;28;20041;-62
2023/01/04 10:50:57;;;;;;;16.55;7.78;;;;;;;;;;6266338;28;20083;-62
2023/01/04 10:54:07;;;;;;;13.98;6.50;;;;;;;;;;6258162;28;20140;-62
2023/01/04 10:57:25;;;;;;;17.17;6.88;;;;;;;;;;6243672;28;20505;-62
2023/01/04 11:00:31;;;;;;;14.88;7.15;;;;;;;;;;6242607;28;20051;-62
2023/01/04 11:03:50;;;;;;;16.70;6.35;;;;;;;;;;6245783;28;20045;-62
2023/01/04 11:07:09;;;;;;;15.55;6.25;;;;;;;;;;6242627;28;20051;-62
2023/01/04 11:10:15;;;;;;;17.45;7.15;;;;;;;;;;6243807;28;20049;-62
2023/01/04 11:13:16;;;;;;;13.55;6.63;;;;;;;;;;6244356;28;20471;-62
2023/01/04 11:16:17;;;;;;;16.35;6.35;;;;;;;;;;6262559;28;20044;-62
2023/01/04 11:19:17;;;;;;;21.20;7.32;;;;;;;;;;6244998;28;20094;-62
2023/01/04 11:22:28;;;;;;;15.43;6.90;;;;;;;;;;6246800;28;20099;-62
2023/01/04 11:25:34;;;;;;;20.10;6.93;;;;;;;;;;6243116;28;20112;-62
2023/01/04 11:28:59;;;;;;;20.25;7.70;;;;;;;;;;6242615;28;20041;-62
2023/01/04 11:32:12;;;;;;;18.67;7.88;;;;;;;;;;6241660;28;20053;-62
2023/01/04 11:35:13;;;;;;;15.77;6.25;;;;;;;;;;6244291;28;20148;-62
2023/01/04 11:38:19;;;;;;;18.42;7.45;;;;;;;;;;6242934;28;20073;-62
2023/01/04 11:41:20;;;;;;;17.05;8.15;;;;;;;;;;6260660;28;20052;-62
2023/01/04 11:44:21;;;;;;;18.33;7.53;;;;;;;;;;6265464;28;20076;-62
2023/01/04 11:47:27;;;;;;;18.50;7.95;;;;;;;;;;6270046;28;20053;-62
2023/01/04 11:50:40;;;;;;;16.83;6.93;;;;;;;;;;6266583;28;20136;-62
2023/01/04 11:53:40;;;;;;;21.80;8.48;;;;;;;;;;6267318;28;20140;-62
2023/01/04 11:56:57;;;;;;;19.33;8.93;;;;;;;;;;6269644;28;20115;-62
2023/01/04 12:00:15;;;;;;;17.42;8.63;;;;;;;;;;6265508;28;20045;-61
2023/01/04 12:03:24;;;;;;;17.80;7.18;;;;;;;;;;6246976;28;20090;-62
2023/01/04 12:06:38;;;;;;;17.38;7.72;;;;;;;;;;6244081;28;20052;-68
2023/01/04 12:09:39;;;;;;;18.35;8.77;;;;;;;;;;6241465;28;22274;-62
2023/01/04 12:12:39;;;;;;;21.08;8.50;;;;;;;;;;6248966;28;20045;-62
2023/01/04 12:16:17;;;;;;;19.88;7.47;;;;;;;;;;6244417;28;20108;-62
2023/01/04 12:19:20;;;;;;;18.00;7.95;;;;;;;;;;6239314;28;20072;-61
2023/01/04 12:22:38;;;;;;;18.75;8.18;;;;;;;;;;6242579;28;20053;-61
2023/01/04 12:25:44;;;;;;;23.58;12.70;;;;;;;;;;6242248;28;20045;-60
2023/01/04 12:28:49;;;;;;;19.85;10.18;;;;;;;;;;6239167;28;20613;-61
2023/01/04 12:32:10;;;;;;;23.88;12.65;;;;;;;;;;6242280;28;20125;-60
2023/01/04 12:35:48;;;;;;;26.38;9.65;;;;;;;;;;6250297;28;20569;-60
2023/01/04 12:39:28;;;;;;;22.88;9.70;;;;;;;;;;6240761;28;20099;-63
2023/01/04 12:42:28;;;;;;;21.30;11.18;;;;;;;;;;6239168;28;20053;-61
2023/01/04 12:45:29;;;;;;;28.17;13.55;;;;;;;;;;6243124;28;20041;-63
2023/01/04 12:51:48;;;;;;;15.13;7.53;;;;;;;;;;6242992;28;20045;-63
2023/01/04 12:54:53;;;;;;;19.60;7.60;;;;;;;;;;6242663;28;20072;-61
2023/01/04 12:57:53;;;;;;;15.77;5.57;;;;;;;;;;6260300;28;20487;-60
2023/01/04 13:00:54;;;;;;;14.35;6.85;;;;;;;;;;6251828;28;20087;-63
2023/01/04 13:04:01;;;;;;;15.07;8.85;;;;;;;;;;6249267;28;20081;-61
2023/01/04 13:07:15;;;;;;;13.48;6.90;;;;;;;;;;6242789;28;20557;-62
2023/01/04 13:10:16;;;;;;;14.05;8.18;;;;;;;;;;6242941;28;20041;-61
2023/01/04 13:13:36;;;;;;;12.23;5.82;;;;;;;;;;6239782;28;20096;-61
2023/01/04 13:16:48;;;;;;;12.90;5.78;;;;;;;;;;6241577;28;20057;-61
2023/01/04 13:19:49;;;;;;;12.65;5.70;;;;;;;;;;6239122;28;20114;-62
2023/01/04 13:22:53;;;;;;;14.68;6.28;;;;;;;;;;6241078;28;20060;-63
2023/01/04 13:25:53;;;;;;;13.00;5.40;;;;;;;;;;6244203;28;20049;-65
2023/01/04 13:29:22;;;;;;;11.68;5.63;;;;;;;;;;6224034;28;20548;-62
2023/01/04 13:32:28;;;;;;;20.05;8.68;;;;;;;;;;6227775;28;20242;-61
2023/01/04 13:35:28;;;;;;;11.05;5.40;;;;;;;;;;6231659;28;20053;-61
2023/01/04 13:38:32;;;;;;;11.25;5.18;;;;;;;;;;6229214;28;20496;-63
2023/01/04 13:41:33;;;;;;;27.58;8.95;;;;;;;;;;6224441;28;20050;-61
2023/01/04 13:44:34;;;;;;;19.07;7.23;;;;;;;;;;6226497;28;20049;-61
2023/01/04 13:47:37;;;;;;;19.75;7.75;;;;;;;;;;6227150;28;20054;-60
2023/01/04 13:50:45;;;;;;;11.15;4.72;;;;;;;;;;6224634;28;20064;-61
2023/01/04 13:53:59;;;;;;;14.05;5.80;;;;;;;;;;6226997;28;20545;-60
2023/01/04 13:57:09;;;;;;;11.00;4.80;;;;;;;;;;6225476;28;20045;-61
2023/01/04 14:00:13;;;;;;;13.85;5.80;;;;;;;;;;6225519;28;20048;-60
2023/01/04 14:03:31;;;;;;;10.18;4.70;;;;;;;;;;6225968;28;20045;-61
2023/01/04 14:06:40;;;;;;;12.82;5.05;;;;;;;;;;6227647;28;20111;-61
2023/01/04 14:09:45;;;;;;;12.60;5.45;;;;;;;;;;6225310;28;20045;-60
2023/01/04 14:12:46;;;;;;;10.40;5.50;;;;;;;;;;6225318;28;20041;-61
2023/01/04 14:16:12;;;;;;;14.32;7.90;;;;;;;;;;6222988;28;20064;-61
2023/01/04 14:19:40;;;;;;;11.52;5.00;;;;;;;;;;6224393;28;20423;-60
2023/01/04 14:22:44;;;;;;;8.27;3.83;;;;;;;;;;6219836;28;20064;-60
2023/01/04 14:25:47;;;;;;;11.75;5.22;;;;;;;;;;6224483;28;20431;-61
2023/01/04 14:28:51;;;;;;;9.50;5.00;;;;;;;;;;6225095;28;20128;-61
2023/01/04 14:31:51;;;;;;;8.48;3.92;;;;;;;;;;6225659;28;20056;-60
2023/01/04 14:34:53;;;;;;;10.60;4.10;;;;;;;;;;6228081;28;20057;-60
2023/01/04 14:38:01;;;;;;;9.20;4.20;;;;;;;;;;6225589;28;20114;-60
2023/01/04 14:41:25;;;;;;;7.57;3.30;;;;;;;;;;6226333;28;20052;-61
2023/01/04 14:44:29;;;;;;;5.88;2.83;;;;;;;;;;6227828;28;20060;-61
2023/01/04 14:47:30;;;;;;;20.75;8.30;;;;;;;;;;6221255;28;20054;-61
2023/01/04 14:50:31;;;;;;;18.60;7.78;;;;;;;;;;6225165;28;20432;-61
2023/01/04 14:53:33;;;;;;;15.65;8.43;;;;;;;;;;6228460;28;21048;-61
2023/01/04 14:56:33;;;;;;;10.63;6.35;;;;;;;;;;6226986;28;20064;-61
2023/01/04 14:59:34;;;;;;;9.82;5.10;;;;;;;;;;6223169;28;20037;-61
2023/01/04 15:02:35;;;;;;;7.05;3.60;;;;;;;;;;6220994;28;20058;-60
2023/01/04 15:05:36;;;;;;;8.32;3.45;;;;;;;;;;6228493;28;20132;-60
2023/01/04 15:08:36;;;;;;;6.50;2.65;;;;;;;;;;6226099;28;20064;-61
2023/01/04 15:11:38;;;;;;;8.27;3.90;;;;;;;;;;6230381;28;20053;-61
2023/01/04 15:14:40;;;;;;;8.35;3.80;;;;;;;;;;6228946;28;20614;-61
2023/01/04 15:17:40;;;;;;;7.30;3.22;;;;;;;;;;6235597;28;20099;-61
2023/01/04 15:20:41;;;;;;;7.45;2.90;;;;;;;;;;6229892;28;20041;-60
2023/01/04 15:23:42;;;;;;;8.45;3.33;;;;;;;;;;6231899;28;20263;-61
2023/01/04 15:26:42;;;;;;;9.27;5.68;;;;;;;;;;6229759;28;20046;-62
2023/01/04 15:29:43;;;;;;;7.22;3.75;;;;;;;;;;6230264;28;20049;-62
2023/01/04 15:32:43;;;;;;;9.65;5.55;;;;;;;;;;6234466;28;20053;-61
2023/01/04 15:35:45;;;;;;;8.90;3.30;;;;;;;;;;6234272;28;20160;-61
2023/01/04 15:38:45;;;;;;;10.45;3.97;;;;;;;;;;6234854;28;20073;-60
2023/01/04 15:45:06;;;;;;;20.10;7.97;;;;;;;;;;6236722;28;20431;-62
2023/01/04 15:48:09;;;;;;;11.35;6.53;;;;;;;;;;6237240;28;20102;-63
2023/01/04 15:51:11;;;;;;;18.00;9.70;;;;;;;;;;6232708;28;20787;-60
2023/01/04 15:54:16;;;;;;;12.02;7.63;;;;;;;;;;6236860;28;20054;-60
2023/01/04 15:57:16;;;;;;;9.05;4.90;;;;;;;;;;6236561;28;20187;-60
2023/01/04 16:00:17;;;;;;;7.95;3.50;;;;;;;;;;6235241;28;20045;-60
2023/01/04 16:03:18;;;;;;;6.80;3.55;;;;;;;;;;6237499;28;20442;-60
2023/01/04 16:06:18;;;;;;;8.48;3.20;;;;;;;;;;6235101;28;20045;-62
2023/01/04 16:09:19;;;;;;;8.93;3.78;;;;;;;;;;6233047;28;21173;-61
2023/01/04 16:15:38;;;;;;;9.57;3.78;;;;;;;;;;6237638;28;20054;-62
2023/01/04 16:18:46;;;;;;;9.63;4.53;;;;;;;;;;6235766;28;20037;-62
2023/01/04 16:21:46;;;;;;;8.35;4.65;;;;;;;;;;6233689;28;20087;-61
2023/01/04 16:24:47;;;;;;;11.40;5.22;;;;;;;;;;6235595;28;20148;-62
2023/01/04 16:27:47;;;;;;;15.75;7.53;;;;;;;;;;6235688;28;20049;-62
2023/01/04 16:30:54;;;;;;;18.30;10.32;;;;;;;;;;6234095;28;20077;-62
2023/01/04 16:33:55;;;;;;;22.40;9.30;;;;;;;;;;6235828;28;20045;-61
2023/01/04 16:36:56;;;;;;;12.02;6.00;;;;;;;;;;6235880;28;20496;-61
2023/01/04 16:39:56;;;;;;;22.10;7.78;;;;;;;;;;6232745;28;20045;-63
2023/01/04 16:42:57;;;;;;;23.05;8.80;;;;;;;;;;6234502;28;20053;-64
2023/01/04 16:46:25;;;;;;;49.95;21.30;;;;;;;;;;6235050;28;20179;-61
2023/01/04 16:49:50;;;;;;;11.30;4.93;;;;;;;;;;6232709;28;20060;-61
2023/01/04 16:52:50;;;;;;;17.55;8.50;;;;;;;;;;6234707;28;20100;-62
2023/01/04 16:55:52;;;;;;;18.50;8.52;;;;;;;;;;6233364;28;20045;-64
2023/01/04 16:58:53;;;;;;;8.90;4.70;;;;;;;;;;6234024;28;20104;-62
2023/01/04 17:01:53;;;;;;;16.45;8.65;;;;;;;;;;6230574;28;20057;-62
2023/01/04 17:04:58;;;;;;;10.80;4.32;;;;;;;;;;6227354;28;20057;-62
2023/01/04 17:07:58;;;;;;;9.70;4.10;;;;;;;;;;6225769;28;20057;-61
2023/01/04 17:11:04;;;;;;;18.08;9.07;;;;;;;;;;6225145;28;20055;-61
2023/01/04 17:14:12;;;;;;;22.25;9.32;;;;;;;;;;6226340;28;20047;-62
2023/01/04 17:17:13;;;;;;;12.85;6.15;;;;;;;;;;6225123;28;20504;-62
2023/01/04 17:20:14;;;;;;;29.75;15.63;;;;;;;;;;6227673;28;20049;-62
2023/01/04 17:23:14;;;;;;;22.75;12.48;;;;;;;;;;6232586;28;20049;-62
2023/01/04 17:26:19;;;;;;;17.50;9.70;;;;;;;;;;6234262;28;20144;-62
2023/01/04 17:29:19;;;;;;;17.52;9.15;;;;;;;;;;6229683;28;20131;-62
2023/01/04 17:32:20;;;;;;;12.75;5.75;;;;;;;;;;6229791;28;20088;-62
2023/01/04 17:35:20;;;;;;;10.48;4.50;;;;;;;;;;6232044;28;20533;-64
2023/01/04 17:38:21;;;;;;;10.15;4.40;;;;;;;;;;6231916;28;20148;-63
2023/01/04 17:41:23;;;;;;;13.82;5.97;;;;;;;;;;6226682;28;20053;-62
2023/01/04 17:44:24;;;;;;;11.15;4.43;;;;;;;;;;6227093;28;20060;-63
2023/01/04 17:47:24;;;;;;;10.70;4.88;;;;;;;;;;6227035;28;20042;-61
2023/01/04 17:50:25;;;;;;;13.23;5.35;;;;;;;;;;6224321;28;20056;-62
2023/01/04 17:53:26;;;;;;;9.98;4.55;;;;;;;;;;6228284;28;20049;-63
2023/01/04 17:56:28;;;;;;;10.63;4.95;;;;;;;;;;6227004;28;20385;-61
2023/01/04 17:59:29;;;;;;;9.05;4.50;;;;;;;;;;6225125;28;20049;-61
2023/01/04 18:02:31;;;;;;;10.07;4.22;;;;;;;;;;6227530;28;20076;-61
2023/01/04 18:05:32;;;;;;;;;;;;;;;;;;6227035;28;20139;-61
2023/01/04 18:08:32;;;;;;;13.20;5.85;;;;;;;;;;6228164;28;19983;-60
2023/01/04 18:11:34;;;;;;;10.57;4.22;;;;;;;;;;6225304;28;20539;-60
2023/01/04 18:14:36;;;;;;;13.00;7.40;;;;;;;;;;6226478;28;20045;-60
2023/01/04 18:17:37;;;;;;;12.80;5.22;;;;;;;;;;6228499;28;20853;-60
2023/01/04 18:20:37;;;;;;;9.23;3.80;;;;;;;;;;6225199;28;20050;-61
2023/01/04 18:23:38;;;;;;;8.70;4.32;;;;;;;;;;6226795;28;20057;-61
2023/01/04 18:26:39;;;;;;;7.65;3.70;;;;;;;;;;6227477;28;20586;-61
2023/01/04 18:29:39;;;;;;;8.15;3.58;;;;;;;;;;6225256;28;20065;-60
2023/01/04 18:32:40;;;;;;;7.70;4.10;;;;;;;;;;6226125;28;20148;-60
2023/01/04 18:35:42;;;;;;;13.27;6.20;;;;;;;;;;6226341;28;20388;-61
2023/01/04 18:38:43;;;;;;;18.45;9.63;;;;;;;;;;6227839;28;20054;-61
2023/01/04 18:41:44;;;;;;;30.75;15.40;;;;;;;;;;6226657;28;20484;-60
2023/01/04 18:44:45;;;;;;;18.80;10.95;;;;;;;;;;6228585;28;20049;-61
2023/01/04 18:47:48;;;;;;;12.05;6.20;;;;;;;;;;6237143;28;20079;-62
2023/01/04 18:50:49;;;;;;;9.82;4.63;;;;;;;;;;6232560;28;20140;-62
2023/01/04 18:53:50;;;;;;;11.18;5.82;;;;;;;;;;6232834;28;20061;-62